Time;durP1;ratioP1;P1;durP2;ratioP2;P2;SDS_P1;SDS_P2;PMS_P1;PMS_P2;Temp;Humidity;BMP_temperature;BMP_pressure;BME280_temperature;BME280_humidity;BME280_pressure;Samples;Min_cycle;Max_cycle;Signal;HPM_P1;HPM_P2
2022/11/16 00:00:46;;;;;;;13.50;7.20;;;;;;;;;;5067510;28;20743;-80
2022/11/16 00:03:12;;;;;;;15.10;8.40;;;;;;;;;;5052700;28;20273;-80
2022/11/16 00:05:38;;;;;;;10.77;6.37;;;;;;;;;;5052476;28;20276;-80
2022/11/16 00:08:05;;;;;;;15.53;8.73;;;;;;;;;;5068280;28;20181;-80
2022/11/16 00:10:31;;;;;;;15.00;8.90;;;;;;;;;;5062310;28;20220;-79
2022/11/16 00:12:57;;;;;;;11.03;6.60;;;;;;;;;;5067320;28;20216;-80
2022/11/16 00:15:23;;;;;;;9.07;6.20;;;;;;;;;;5084459;28;20188;-79
2022/11/16 00:17:49;;;;;;;6.10;4.90;;;;;;;;;;5067954;28;20170;-80
2022/11/16 00:20:15;;;;;;;6.23;5.30;;;;;;;;;;5073559;28;20605;-80
2022/11/16 00:22:41;;;;;;;5.17;4.63;;;;;;;;;;5088563;28;20215;-80
2022/11/16 00:25:08;;;;;;;5.47;4.50;;;;;;;;;;5078371;28;20193;-80
2022/11/16 00:27:34;;;;;;;4.83;4.33;;;;;;;;;;5066677;28;20242;-80
2022/11/16 00:30:01;;;;;;;5.90;4.43;;;;;;;;;;5085075;28;20181;-80
2022/11/16 00:32:27;;;;;;;8.00;4.20;;;;;;;;;;5084702;28;20224;-80
2022/11/16 00:34:53;;;;;;;6.00;4.63;;;;;;;;;;5067301;28;20177;-80
2022/11/16 00:37:19;;;;;;;5.83;4.40;;;;;;;;;;5068633;28;20181;-79
2022/11/16 00:39:45;;;;;;;6.33;4.47;;;;;;;;;;5050371;28;20231;-79
2022/11/16 00:42:12;;;;;;;6.77;4.93;;;;;;;;;;5064075;28;20201;-79
2022/11/16 00:44:38;;;;;;;5.53;4.40;;;;;;;;;;5072545;28;20188;-79
2022/11/16 00:47:04;;;;;;;6.93;5.07;;;;;;;;;;5072625;28;20233;-79
2022/11/16 00:49:30;;;;;;;7.30;4.63;;;;;;;;;;5088516;28;20220;-79
2022/11/16 00:51:57;;;;;;;6.60;5.00;;;;;;;;;;5050300;28;20200;-79
2022/11/16 00:54:23;;;;;;;6.43;4.70;;;;;;;;;;5071786;28;20185;-79
2022/11/16 00:56:50;;;;;;;6.87;4.60;;;;;;;;;;5061045;28;20205;-79
2022/11/16 00:59:16;;;;;;;4.40;4.00;;;;;;;;;;5067805;28;20185;-79
2022/11/16 01:01:42;;;;;;;8.70;5.80;;;;;;;;;;5068067;28;20676;-79
2022/11/16 01:04:08;;;;;;;10.67;6.30;;;;;;;;;;5068964;28;20497;-79
2022/11/16 01:06:35;;;;;;;9.47;5.17;;;;;;;;;;5083883;28;20201;-78
2022/11/16 01:09:02;;;;;;;11.77;6.73;;;;;;;;;;5085375;28;20203;-79
2022/11/16 01:14:12;;;;;;;12.07;7.13;;;;;;;;;;5083540;28;20217;-79
2022/11/16 01:16:41;;;;;;;9.20;6.03;;;;;;;;;;5064194;28;20185;-79
2022/11/16 01:19:07;;;;;;;7.93;5.60;;;;;;;;;;5071460;28;20693;-79
2022/11/16 01:21:34;;;;;;;10.00;6.10;;;;;;;;;;5065294;28;20277;-79
2022/11/16 01:24:00;;;;;;;8.83;6.27;;;;;;;;;;5082646;28;20197;-79
2022/11/16 01:26:26;;;;;;;11.27;7.07;;;;;;;;;;5082542;28;20242;-79
2022/11/16 01:28:53;;;;;;;16.40;7.83;;;;;;;;;;5083782;28;20242;-79
2022/11/16 01:31:19;;;;;;;11.87;6.43;;;;;;;;;;5061065;28;20249;-79
2022/11/16 01:33:48;;;;;;;9.43;5.67;;;;;;;;;;5083237;28;20275;-80
2022/11/16 01:36:23;;;;;;;10.77;5.93;;;;;;;;;;5082466;28;20165;-79
2022/11/16 01:38:50;;;;;;;10.60;6.30;;;;;;;;;;5065075;28;20251;-79
2022/11/16 01:41:20;;;;;;;8.57;5.53;;;;;;;;;;5083246;28;20169;-79
2022/11/16 01:43:57;;;;;;;10.20;5.50;;;;;;;;;;5055997;28;20234;-79
2022/11/16 01:46:27;;;;;;;13.27;6.97;;;;;;;;;;5066543;28;20189;-79
2022/11/16 01:48:59;;;;;;;12.90;6.90;;;;;;;;;;5047706;28;20214;-79
2022/11/16 01:51:25;;;;;;;8.43;5.57;;;;;;;;;;5067530;28;20219;-79
2022/11/16 01:53:52;;;;;;;6.53;5.07;;;;;;;;;;5083054;28;20204;-79
2022/11/16 01:56:19;;;;;;;6.13;4.57;;;;;;;;;;5068961;28;20180;-79
2022/11/16 01:58:58;;;;;;;6.00;4.33;;;;;;;;;;5066471;28;20241;-79
2022/11/16 02:01:25;;;;;;;4.27;3.70;;;;;;;;;;5068283;28;20228;-79
2022/11/16 02:03:55;;;;;;;6.37;4.67;;;;;;;;;;5085606;28;20197;-79
2022/11/16 02:06:33;;;;;;;4.60;3.90;;;;;;;;;;5084111;28;20212;-79
2022/11/16 02:12:06;;;;;;;13.93;10.00;;;;;;;;;;5066582;28;20224;-79
2022/11/16 02:14:56;;;;;;;9.63;7.07;;;;;;;;;;5068197;28;20249;-79
2022/11/16 02:17:23;;;;;;;9.47;6.90;;;;;;;;;;5063148;28;20193;-79
2022/11/16 02:19:49;;;;;;;12.93;7.27;;;;;;;;;;5068088;28;20185;-79
2022/11/16 02:22:22;;;;;;;12.17;7.67;;;;;;;;;;5062632;28;20265;-79
2022/11/16 02:25:26;;;;;;;9.03;6.27;;;;;;;;;;5065096;28;20217;-79
2022/11/16 02:28:11;;;;;;;10.13;7.53;;;;;;;;;;5007879;28;20214;-79
2022/11/16 02:30:39;;;;;;;12.97;8.27;;;;;;;;;;5007357;28;20210;-79
2022/11/16 02:33:09;;;;;;;12.17;7.13;;;;;;;;;;5033339;28;20228;-79
2022/11/16 02:35:42;;;;;;;12.97;7.90;;;;;;;;;;5065218;28;20185;-79
2022/11/16 02:38:12;;;;;;;9.77;7.40;;;;;;;;;;5064337;28;20195;-79
2022/11/16 02:40:40;;;;;;;13.53;8.50;;;;;;;;;;5048130;28;20196;-79
2022/11/16 02:43:08;;;;;;;10.37;6.87;;;;;;;;;;5035457;28;20197;-79
2022/11/16 02:45:38;;;;;;;8.90;7.83;;;;;;;;;;5053155;28;20276;-79
2022/11/16 02:48:06;;;;;;;9.87;7.80;;;;;;;;;;5065795;28;20200;-79
2022/11/16 02:50:33;;;;;;;9.40;6.60;;;;;;;;;;5067690;28;20223;-79
2022/11/16 02:52:59;;;;;;;8.37;6.23;;;;;;;;;;5053026;28;20202;-79
2022/11/16 02:55:28;;;;;;;7.07;6.37;;;;;;;;;;5087106;28;20442;-80
2022/11/16 02:57:56;;;;;;;7.20;6.23;;;;;;;;;;5066779;28;20220;-79
2022/11/16 03:00:33;;;;;;;6.70;6.00;;;;;;;;;;5090419;28;20310;-79
2022/11/16 03:03:15;;;;;;;7.77;6.03;;;;;;;;;;5076047;28;20201;-79
2022/11/16 03:05:45;;;;;;;7.93;6.47;;;;;;;;;;5075756;28;20725;-79
2022/11/16 03:08:20;;;;;;;10.33;6.33;;;;;;;;;;5077303;28;20207;-79
2022/11/16 03:13:37;;;;;;;7.73;5.70;;;;;;;;;;5084345;28;20220;-79
2022/11/16 03:16:07;;;;;;;9.67;5.90;;;;;;;;;;5072157;28;20183;-79
2022/11/16 03:18:33;;;;;;;8.53;6.03;;;;;;;;;;5063143;28;20239;-79
2022/11/16 03:21:05;;;;;;;7.23;5.20;;;;;;;;;;5052974;28;20185;-79
2022/11/16 03:23:32;;;;;;;8.60;6.00;;;;;;;;;;5086667;28;20636;-79
2022/11/16 03:25:59;;;;;;;9.53;5.40;;;;;;;;;;5068893;28;20173;-79
2022/11/16 03:28:43;;;;;;;7.90;5.60;;;;;;;;;;5070359;28;20735;-79
2022/11/16 03:31:12;;;;;;;6.70;5.10;;;;;;;;;;5085795;28;20213;-79
2022/11/16 03:33:50;;;;;;;7.83;5.70;;;;;;;;;;5078638;28;20552;-79
2022/11/16 03:36:24;;;;;;;7.20;5.87;;;;;;;;;;5062446;28;20173;-79
2022/11/16 03:38:51;;;;;;;7.40;5.87;;;;;;;;;;5069746;28;20211;-79
2022/11/16 03:41:21;;;;;;;9.47;6.13;;;;;;;;;;5058355;28;20548;-79
2022/11/16 03:43:48;;;;;;;8.30;6.20;;;;;;;;;;5068677;28;20209;-79
2022/11/16 03:46:15;;;;;;;8.43;6.47;;;;;;;;;;5084706;28;20184;-79
2022/11/16 03:48:42;;;;;;;7.67;6.20;;;;;;;;;;5050245;28;20812;-79
2022/11/16 03:51:15;;;;;;;7.30;5.90;;;;;;;;;;5063658;28;20204;-79
2022/11/16 03:53:42;;;;;;;7.37;5.40;;;;;;;;;;5070103;28;20201;-79
2022/11/16 03:56:09;;;;;;;7.77;5.40;;;;;;;;;;5077750;28;20181;-79
2022/11/16 03:58:37;;;;;;;8.57;6.10;;;;;;;;;;5082002;28;20185;-79
2022/11/16 04:01:04;;;;;;;6.90;5.40;;;;;;;;;;5068224;28;20272;-79
2022/11/16 04:03:31;;;;;;;12.80;6.90;;;;;;;;;;5084347;28;20223;-79
2022/11/16 04:25:24;;;;;;;6.77;5.23;;;;;;;;;;5069317;28;20192;-79
2022/11/16 04:38:50;;;;;;;6.50;5.90;;;;;;;;;;5069438;28;20651;-79
2022/11/16 04:44:01;;;;;;;6.93;6.33;;;;;;;;;;5062769;28;20709;-79
2022/11/16 04:49:12;;;;;;;7.97;6.93;;;;;;;;;;5069609;28;20249;-79
2022/11/16 04:51:38;;;;;;;8.53;7.03;;;;;;;;;;5068766;28;20277;-79
2022/11/16 04:54:05;;;;;;;7.80;7.07;;;;;;;;;;5084599;28;20637;-79
2022/11/16 04:56:31;;;;;;;9.00;8.10;;;;;;;;;;5066412;28;20214;-79
2022/11/16 04:58:57;;;;;;;10.13;9.00;;;;;;;;;;5051467;28;20242;-79
2022/11/16 05:02:06;;;;;;;10.17;8.50;;;;;;;;;;5084192;28;20690;-79
2022/11/16 05:04:10;;;;;;;11.97;9.40;;;;;;;;;;5059211;28;20185;-79
2022/11/16 05:06:37;;;;;;;11.10;9.93;;;;;;;;;;5067148;28;21246;-79
2022/11/16 05:09:03;;;;;;;9.37;8.47;;;;;;;;;;5067313;28;20185;-79
2022/11/16 05:11:29;;;;;;;9.07;8.17;;;;;;;;;;5082587;28;20219;-79
2022/11/16 05:13:56;;;;;;;10.40;9.27;;;;;;;;;;5077240;28;20217;-79
2022/11/16 05:16:22;;;;;;;12.73;10.97;;;;;;;;;;5065493;28;20234;-79
2022/11/16 05:20:59;;;;;;;11.40;10.30;;;;;;;;;;5067552;28;20677;-80
2022/11/16 05:21:35;;;;;;;11.80;10.47;;;;;;;;;;5041536;28;20621;-79
2022/11/16 05:26:46;;;;;;;12.40;11.20;;;;;;;;;;5081752;28;20177;-79
2022/11/16 05:29:13;;;;;;;13.47;12.07;;;;;;;;;;5084296;28;20181;-79
2022/11/16 05:31:39;;;;;;;12.53;11.23;;;;;;;;;;5072405;28;20926;-80
2022/11/16 05:34:06;;;;;;;12.37;10.63;;;;;;;;;;5073378;28;20241;-79
2022/11/16 05:36:32;;;;;;;12.37;10.83;;;;;;;;;;5078733;28;20170;-80
2022/11/16 05:38:58;;;;;;;13.07;11.77;;;;;;;;;;5074242;28;20181;-79
2022/11/16 05:41:28;;;;;;;14.17;12.77;;;;;;;;;;5070843;28;20247;-79
2022/11/16 05:43:56;;;;;;;14.37;12.43;;;;;;;;;;5070041;28;20425;-80
2022/11/16 05:46:22;;;;;;;15.47;12.97;;;;;;;;;;5085461;28;20427;-80
2022/11/16 05:48:49;;;;;;;14.03;12.37;;;;;;;;;;5082203;28;20245;-79
2022/11/16 05:51:15;;;;;;;16.03;12.93;;;;;;;;;;5068695;28;20209;-80
2022/11/16 05:53:43;;;;;;;13.07;11.67;;;;;;;;;;5067029;28;20824;-79
2022/11/16 05:56:13;;;;;;;14.07;12.20;;;;;;;;;;5063090;28;20174;-79
2022/11/16 05:58:41;;;;;;;14.53;11.87;;;;;;;;;;5084153;28;20188;-79
2022/11/16 06:01:07;;;;;;;12.70;11.27;;;;;;;;;;5066144;28;20195;-79
2022/11/16 06:03:35;;;;;;;12.73;11.33;;;;;;;;;;5071295;28;20235;-79
2022/11/16 06:06:04;;;;;;;12.10;10.80;;;;;;;;;;5038571;28;20243;-79
2022/11/16 06:08:31;;;;;;;14.43;12.93;;;;;;;;;;5075377;28;20421;-79
2022/11/16 06:11:03;;;;;;;13.30;11.70;;;;;;;;;;5077205;28;20201;-79
2022/11/16 06:13:30;;;;;;;12.67;10.80;;;;;;;;;;5071965;28;20225;-79
2022/11/16 06:15:59;;;;;;;13.23;11.13;;;;;;;;;;5057263;28;20200;-79
2022/11/16 06:18:31;;;;;;;14.30;11.30;;;;;;;;;;5055646;28;20177;-79
2022/11/16 06:20:57;;;;;;;14.27;11.87;;;;;;;;;;5069414;28;20671;-81
2022/11/16 06:23:23;;;;;;;17.13;11.97;;;;;;;;;;5066664;28;20286;-79
2022/11/16 06:25:53;;;;;;;15.93;12.23;;;;;;;;;;5045098;28;20192;-78
2022/11/16 06:28:19;;;;;;;13.10;11.37;;;;;;;;;;5086232;28;20173;-80
2022/11/16 06:30:47;;;;;;;13.83;11.77;;;;;;;;;;5068309;28;20201;-79
2022/11/16 06:33:13;;;;;;;15.80;12.67;;;;;;;;;;5072861;28;20209;-79
2022/11/16 06:35:40;;;;;;;15.73;12.43;;;;;;;;;;5069393;28;20185;-79
2022/11/16 06:38:07;;;;;;;17.90;12.07;;;;;;;;;;5063128;28;20248;-79
2022/11/16 06:40:33;;;;;;;14.03;11.67;;;;;;;;;;5089382;28;20227;-79
2022/11/16 06:43:01;;;;;;;15.00;11.37;;;;;;;;;;5073052;28;20206;-79
2022/11/16 06:45:28;;;;;;;14.00;12.30;;;;;;;;;;5055793;28;20192;-79
2022/11/16 06:47:56;;;;;;;14.73;12.87;;;;;;;;;;5055428;28;20261;-79
2022/11/16 06:50:23;;;;;;;14.33;12.37;;;;;;;;;;5089276;28;20224;-79
2022/11/16 06:52:49;;;;;;;14.10;11.67;;;;;;;;;;5046917;28;20277;-79
2022/11/16 06:55:17;;;;;;;13.23;11.33;;;;;;;;;;5068032;28;20181;-82
2022/11/16 06:57:45;;;;;;;12.93;10.87;;;;;;;;;;5049367;28;20260;-80
2022/11/16 07:00:12;;;;;;;13.93;10.90;;;;;;;;;;5068605;28;20230;-82
2022/11/16 07:02:39;;;;;;;13.07;11.27;;;;;;;;;;5070447;28;20306;-81
2022/11/16 07:05:08;;;;;;;14.27;12.27;;;;;;;;;;5056971;28;20225;-80
2022/11/16 07:07:35;;;;;;;17.60;13.37;;;;;;;;;;5070207;28;20241;-77
2022/11/16 07:10:01;;;;;;;14.90;11.73;;;;;;;;;;5070326;28;20184;-79
2022/11/16 07:12:28;;;;;;;14.17;12.20;;;;;;;;;;5080024;28;20209;-80
2022/11/16 07:14:56;;;;;;;15.07;12.20;;;;;;;;;;5080268;28;20185;-80
2022/11/16 07:17:24;;;;;;;14.33;12.17;;;;;;;;;;5070062;28;20193;-80
2022/11/16 07:19:50;;;;;;;17.83;12.83;;;;;;;;;;5071750;28;20189;-80
2022/11/16 07:22:16;;;;;;;14.73;11.90;;;;;;;;;;5055417;28;20202;-80
2022/11/16 07:24:43;;;;;;;15.93;13.13;;;;;;;;;;5051877;28;20273;-83
2022/11/16 07:27:10;;;;;;;13.43;11.00;;;;;;;;;;5054057;28;20181;-80
2022/11/16 07:29:40;;;;;;;13.07;11.33;;;;;;;;;;5070815;28;20595;-80
2022/11/16 07:32:18;;;;;;;13.80;11.47;;;;;;;;;;5056397;28;20758;-80
2022/11/16 07:35:10;;;;;;;15.03;11.77;;;;;;;;;;5067655;28;20625;-80
2022/11/16 07:37:38;;;;;;;13.77;11.40;;;;;;;;;;5068781;28;20228;-82
2022/11/16 07:40:05;;;;;;;13.50;11.47;;;;;;;;;;5037331;28;20173;-80
2022/11/16 07:42:32;;;;;;;12.87;11.10;;;;;;;;;;5075110;28;20204;-82
2022/11/16 07:45:21;;;;;;;14.83;12.30;;;;;;;;;;5063389;28;20192;-81
2022/11/16 07:47:52;;;;;;;16.40;12.53;;;;;;;;;;5089685;28;20182;-80
2022/11/16 07:50:44;;;;;;;13.73;11.83;;;;;;;;;;5070064;28;20204;-80
2022/11/16 07:53:10;;;;;;;13.67;11.60;;;;;;;;;;5086942;28;20193;-79
2022/11/16 07:55:38;;;;;;;13.57;11.37;;;;;;;;;;5069862;28;20174;-81
2022/11/16 07:58:04;;;;;;;17.73;12.17;;;;;;;;;;5069386;28;20555;-81
2022/11/16 08:00:31;;;;;;;15.30;12.00;;;;;;;;;;5052897;28;20472;-81
2022/11/16 08:03:07;;;;;;;12.77;11.20;;;;;;;;;;5069143;28;20241;-81
2022/11/16 08:05:33;;;;;;;13.60;11.57;;;;;;;;;;5052879;28;20717;-80
2022/11/16 08:08:00;;;;;;;14.57;11.67;;;;;;;;;;5071762;28;20531;-80
2022/11/16 08:10:28;;;;;;;15.07;11.33;;;;;;;;;;5074076;28;20252;-80
2022/11/16 08:12:55;;;;;;;15.23;12.23;;;;;;;;;;5086298;28;20217;-82
2022/11/16 08:15:23;;;;;;;14.57;12.60;;;;;;;;;;5069493;28;20177;-80
2022/11/16 08:17:50;;;;;;;14.53;11.63;;;;;;;;;;5069583;28;20230;-80
2022/11/16 08:20:17;;;;;;;15.13;11.13;;;;;;;;;;5088002;28;20184;-80
2022/11/16 08:22:44;;;;;;;14.63;11.93;;;;;;;;;;5066426;28;20297;-80
2022/11/16 08:25:10;;;;;;;13.87;11.90;;;;;;;;;;5068023;28;20178;-80
2022/11/16 08:27:39;;;;;;;14.70;11.77;;;;;;;;;;5055827;28;20182;-81
2022/11/16 08:30:08;;;;;;;11.53;10.00;;;;;;;;;;5034939;28;20224;-80
2022/11/16 08:32:35;;;;;;;14.53;11.17;;;;;;;;;;5050173;28;20240;-80
2022/11/16 08:35:03;;;;;;;15.57;10.80;;;;;;;;;;5066625;28;20182;-80
2022/11/16 08:37:30;;;;;;;13.07;10.70;;;;;;;;;;5055100;28;20180;-80
2022/11/16 08:39:57;;;;;;;14.27;11.23;;;;;;;;;;5062827;28;20182;-80
2022/11/16 08:42:23;;;;;;;10.67;9.57;;;;;;;;;;5053964;28;20951;-81
2022/11/16 08:44:49;;;;;;;13.40;10.20;;;;;;;;;;5068471;28;20177;-80
2022/11/16 08:47:18;;;;;;;13.90;10.27;;;;;;;;;;5068488;28;20181;-81
2022/11/16 08:49:48;;;;;;;11.87;10.13;;;;;;;;;;5068728;28;20187;-81
2022/11/16 08:52:14;;;;;;;13.17;10.13;;;;;;;;;;5084050;28;20209;-80
2022/11/16 08:54:43;;;;;;;12.47;9.73;;;;;;;;;;5068168;28;20223;-80
2022/11/16 08:57:10;;;;;;;11.57;9.67;;;;;;;;;;5042286;28;20256;-80
2022/11/16 08:59:38;;;;;;;11.37;9.13;;;;;;;;;;5063857;28;20189;-80
2022/11/16 09:02:09;;;;;;;10.77;9.17;;;;;;;;;;5082268;28;20212;-80
2022/11/16 09:04:35;;;;;;;11.10;9.50;;;;;;;;;;5067948;28;20954;-80
2022/11/16 09:07:01;;;;;;;10.07;8.90;;;;;;;;;;5068633;28;20664;-80
2022/11/16 09:09:27;;;;;;;10.73;8.43;;;;;;;;;;5035455;28;20573;-81
2022/11/16 09:11:54;;;;;;;9.80;7.97;;;;;;;;;;5068236;28;20209;-80
2022/11/16 09:14:20;;;;;;;9.43;7.97;;;;;;;;;;5064917;28;20181;-80
2022/11/16 09:16:47;;;;;;;10.27;7.00;;;;;;;;;;5068188;28;20177;-81
2022/11/16 09:19:13;;;;;;;11.77;6.60;;;;;;;;;;5085057;28;20186;-80
2022/11/16 09:21:39;;;;;;;6.57;5.40;;;;;;;;;;5068066;28;20688;-80
2022/11/16 09:24:05;;;;;;;11.47;6.00;;;;;;;;;;5074670;28;20180;-80
2022/11/16 09:26:31;;;;;;;8.20;5.67;;;;;;;;;;5071427;28;20284;-80
2022/11/16 09:28:59;;;;;;;6.83;5.73;;;;;;;;;;5082220;28;20186;-82
2022/11/16 09:31:26;;;;;;;8.30;5.47;;;;;;;;;;5066661;28;20676;-80
2022/11/16 09:33:53;;;;;;;8.53;4.90;;;;;;;;;;5083925;28;20194;-80
2022/11/16 09:36:20;;;;;;;8.37;4.63;;;;;;;;;;5066975;28;20197;-80
2022/11/16 09:38:46;;;;;;;5.43;4.27;;;;;;;;;;5068103;28;20246;-81
2022/11/16 09:41:25;;;;;;;9.30;5.00;;;;;;;;;;5068820;28;20197;-80
2022/11/16 09:43:56;;;;;;;6.50;4.40;;;;;;;;;;5068552;28;20201;-80
2022/11/16 09:46:25;;;;;;;5.97;4.10;;;;;;;;;;5068727;28;20192;-81
2022/11/16 09:48:52;;;;;;;5.23;3.57;;;;;;;;;;5066349;28;20217;-80
2022/11/16 09:51:20;;;;;;;5.50;3.13;;;;;;;;;;5058146;28;20279;-83
2022/11/16 09:54:07;;;;;;;6.67;3.10;;;;;;;;;;5060094;28;20204;-80
2022/11/16 09:56:35;;;;;;;7.67;3.13;;;;;;;;;;5058404;28;20185;-80
2022/11/16 09:59:07;;;;;;;7.13;3.60;;;;;;;;;;5060030;28;20265;-80
2022/11/16 10:01:49;;;;;;;8.30;3.33;;;;;;;;;;5045378;28;20243;-81
2022/11/16 10:04:35;;;;;;;6.93;3.77;;;;;;;;;;5069597;28;20188;-80
2022/11/16 10:07:13;;;;;;;6.57;3.30;;;;;;;;;;5050099;28;20166;-80
2022/11/16 10:09:40;;;;;;;7.27;3.70;;;;;;;;;;5049127;28;20776;-80
2022/11/16 10:12:25;;;;;;;8.93;3.43;;;;;;;;;;5061905;28;20202;-80
2022/11/16 10:15:03;;;;;;;6.23;3.20;;;;;;;;;;5086012;28;20193;-82
2022/11/16 10:17:33;;;;;;;6.13;3.03;;;;;;;;;;5083309;28;20186;-80
2022/11/16 10:20:20;;;;;;;7.07;3.17;;;;;;;;;;5068100;28;20193;-80
2022/11/16 10:22:54;;;;;;;7.17;3.13;;;;;;;;;;5033112;28;20212;-86
2022/11/16 10:25:25;;;;;;;7.40;2.60;;;;;;;;;;5054819;28;20283;-79
2022/11/16 10:27:51;;;;;;;7.80;3.07;;;;;;;;;;5067848;28;20187;-85
2022/11/16 10:30:19;;;;;;;8.03;3.00;;;;;;;;;;5061840;28;20189;-83
2022/11/16 10:32:45;;;;;;;8.20;2.90;;;;;;;;;;5063865;28;20319;-83
2022/11/16 10:35:11;;;;;;;6.23;2.50;;;;;;;;;;5067394;28;20248;-83
2022/11/16 10:37:39;;;;;;;8.30;3.67;;;;;;;;;;5062068;28;20241;-82
2022/11/16 10:40:21;;;;;;;6.77;3.20;;;;;;;;;;5068066;28;20181;-82
2022/11/16 10:42:53;;;;;;;5.17;2.60;;;;;;;;;;5072492;28;20201;-81
2022/11/16 10:45:50;;;;;;;6.63;3.03;;;;;;;;;;5069849;28;20218;-81
2022/11/16 10:48:36;;;;;;;7.03;2.63;;;;;;;;;;5069778;28;20185;-81
2022/11/16 10:51:06;;;;;;;4.57;2.77;;;;;;;;;;5067828;28;20311;-80
2022/11/16 10:53:40;;;;;;;7.70;2.90;;;;;;;;;;5057864;28;20241;-81
2022/11/16 10:56:25;;;;;;;5.30;2.80;;;;;;;;;;5070149;28;20223;-80
2022/11/16 10:58:53;;;;;;;6.27;2.90;;;;;;;;;;5069004;28;20184;-81
2022/11/16 11:01:39;;;;;;;5.93;2.60;;;;;;;;;;5086468;28;20690;-81
2022/11/16 11:04:13;;;;;;;5.87;2.60;;;;;;;;;;5068010;28;20189;-81
2022/11/16 11:07:00;;;;;;;6.27;2.50;;;;;;;;;;5054426;28;20198;-81
2022/11/16 11:09:31;;;;;;;6.83;2.70;;;;;;;;;;5077008;28;20185;-81
2022/11/16 11:15:05;;;;;;;5.07;2.40;;;;;;;;;;5071269;28;20721;-81
2022/11/16 11:17:33;;;;;;;6.37;2.40;;;;;;;;;;5073789;28;20193;-81
2022/11/16 11:20:07;;;;;;;5.80;2.43;;;;;;;;;;5072139;28;20288;-82
2022/11/16 11:22:40;;;;;;;7.30;2.47;;;;;;;;;;5080179;28;20634;-81
2022/11/16 11:25:18;;;;;;;5.50;2.40;;;;;;;;;;5083118;28;20185;-81
2022/11/16 11:27:44;;;;;;;5.47;2.33;;;;;;;;;;5071093;28;20188;-81
2022/11/16 11:30:18;;;;;;;6.40;2.47;;;;;;;;;;5088885;28;20182;-81
2022/11/16 11:32:44;;;;;;;4.97;2.40;;;;;;;;;;5059287;28;20247;-81
2022/11/16 11:35:21;;;;;;;5.33;2.13;;;;;;;;;;5055425;28;20177;-81
2022/11/16 11:37:50;;;;;;;5.90;2.10;;;;;;;;;;5089586;28;20181;-81
2022/11/16 11:40:18;;;;;;;6.07;2.50;;;;;;;;;;5071730;28;20196;-81
2022/11/16 11:42:52;;;;;;;7.43;2.50;;;;;;;;;;5059888;28;20656;-80
2022/11/16 11:45:19;;;;;;;4.70;2.40;;;;;;;;;;5079383;28;20189;-81
2022/11/16 11:47:55;;;;;;;8.93;2.73;;;;;;;;;;5065698;28;20197;-81
2022/11/16 11:50:24;;;;;;;5.30;2.10;;;;;;;;;;5090154;28;20161;-81
2022/11/16 11:53:02;;;;;;;8.60;2.20;;;;;;;;;;5083298;28;20688;-81
2022/11/16 11:55:29;;;;;;;6.47;2.00;;;;;;;;;;5068968;28;20185;-81
2022/11/16 11:57:55;;;;;;;4.00;1.87;;;;;;;;;;5066955;28;20271;-80
2022/11/16 12:00:22;;;;;;;7.43;2.10;;;;;;;;;;5087141;28;20191;-80
2022/11/16 12:02:54;;;;;;;8.37;2.17;;;;;;;;;;5072206;28;20231;-81
2022/11/16 12:05:34;;;;;;;6.53;1.80;;;;;;;;;;5072450;28;20264;-81
2022/11/16 12:08:20;;;;;;;4.83;1.80;;;;;;;;;;5068076;28;20585;-82
2022/11/16 12:10:57;;;;;;;4.97;1.70;;;;;;;;;;5070501;28;20221;-81
2022/11/16 12:13:53;;;;;;;7.40;1.80;;;;;;;;;;5082633;28;20220;-81
2022/11/16 12:16:35;;;;;;;4.80;1.87;;;;;;;;;;5055648;28;20857;-81
2022/11/16 12:19:04;;;;;;;3.13;1.33;;;;;;;;;;5073826;28;20199;-81
2022/11/16 12:21:51;;;;;;;4.63;1.73;;;;;;;;;;5073587;28;20181;-82
2022/11/16 12:24:42;;;;;;;4.43;1.73;;;;;;;;;;5069919;28;20181;-81
2022/11/16 12:27:15;;;;;;;5.60;1.87;;;;;;;;;;5062439;28;20190;-78
2022/11/16 12:29:41;;;;;;;4.70;1.63;;;;;;;;;;5067772;28;20189;-80
2022/11/16 12:32:20;;;;;;;4.83;1.63;;;;;;;;;;5070578;28;20225;-79
2022/11/16 12:34:55;;;;;;;4.53;1.30;;;;;;;;;;5066561;28;20319;-80
2022/11/16 12:37:24;;;;;;;4.73;1.70;;;;;;;;;;5068787;28;20265;-82
2022/11/16 12:40:07;;;;;;;5.20;1.90;;;;;;;;;;5049845;28;20185;-82
2022/11/16 12:42:41;;;;;;;5.53;1.90;;;;;;;;;;5084034;28;20782;-80
2022/11/16 12:45:17;;;;;;;6.93;1.67;;;;;;;;;;5070745;28;20181;-79
2022/11/16 12:48:04;;;;;;;5.17;2.03;;;;;;;;;;5087448;28;20196;-80
2022/11/16 12:50:34;;;;;;;4.47;1.60;;;;;;;;;;5070249;28;20180;-80
2022/11/16 12:53:30;;;;;;;4.07;1.60;;;;;;;;;;5069942;28;20216;-81
2022/11/16 12:56:10;;;;;;;3.43;1.53;;;;;;;;;;5054710;28;20189;-79
2022/11/16 12:58:48;;;;;;;5.73;1.70;;;;;;;;;;5070937;28;20270;-79
2022/11/16 13:01:24;;;;;;;3.73;1.40;;;;;;;;;;5065382;28;20272;-79
2022/11/16 13:03:53;;;;;;;6.00;1.70;;;;;;;;;;5070271;28;20637;-82
2022/11/16 13:06:20;;;;;;;4.80;1.60;;;;;;;;;;5086482;28;20189;-80
2022/11/16 13:08:50;;;;;;;6.47;1.80;;;;;;;;;;5082978;28;20295;-80
2022/11/16 13:11:19;;;;;;;5.60;1.70;;;;;;;;;;5070193;28;20212;-80
2022/11/16 13:13:46;;;;;;;5.87;2.90;;;;;;;;;;5072278;28;20217;-80
2022/11/16 13:16:16;;;;;;;6.50;2.00;;;;;;;;;;5070853;28;20740;-80
2022/11/16 13:18:42;;;;;;;4.80;1.80;;;;;;;;;;5068701;28;20710;-80
2022/11/16 13:21:15;;;;;;;4.53;1.70;;;;;;;;;;5071486;28;20257;-83
2022/11/16 13:23:47;;;;;;;3.77;1.67;;;;;;;;;;5051228;28;20213;-80
2022/11/16 13:26:28;;;;;;;4.23;1.67;;;;;;;;;;5055490;28;20181;-78
2022/11/16 13:28:58;;;;;;;5.77;1.80;;;;;;;;;;5076717;28;20254;-79
2022/11/16 13:31:35;;;;;;;4.33;1.60;;;;;;;;;;5061498;28;20209;-79
2022/11/16 13:34:22;;;;;;;4.23;1.70;;;;;;;;;;5070065;28;20215;-79
2022/11/16 13:36:52;;;;;;;4.47;1.70;;;;;;;;;;5058642;28;20274;-79
2022/11/16 13:39:43;;;;;;;6.93;2.20;;;;;;;;;;5077318;28;20249;-79
2022/11/16 13:42:16;;;;;;;4.00;1.70;;;;;;;;;;5091608;28;20204;-79
2022/11/16 13:44:44;;;;;;;4.23;1.67;;;;;;;;;;5070606;28;20184;-82
2022/11/16 13:47:29;;;;;;;6.30;2.00;;;;;;;;;;5089298;28;20241;-81
2022/11/16 13:50:04;;;;;;;5.53;2.00;;;;;;;;;;5067854;28;20698;-79
2022/11/16 13:52:44;;;;;;;4.63;1.80;;;;;;;;;;5050392;28;20212;-80
2022/11/16 13:55:16;;;;;;;5.27;2.00;;;;;;;;;;5051923;28;20394;-79
2022/11/16 13:57:53;;;;;;;4.93;1.90;;;;;;;;;;5087426;28;20208;-81
2022/11/16 14:00:35;;;;;;;3.83;1.80;;;;;;;;;;5060049;28;20612;-82
2022/11/16 14:03:17;;;;;;;5.20;1.73;;;;;;;;;;5062032;28;20216;-82
2022/11/16 14:05:44;;;;;;;5.90;2.00;;;;;;;;;;5059485;28;20231;-82
2022/11/16 14:08:19;;;;;;;5.77;1.80;;;;;;;;;;5066883;28;20188;-83
2022/11/16 14:10:48;;;;;;;5.40;1.83;;;;;;;;;;5034352;28;20300;-82
2022/11/16 14:13:34;;;;;;;7.50;2.37;;;;;;;;;;5070812;28;20227;-80
2022/11/16 14:16:20;;;;;;;6.20;1.90;;;;;;;;;;5075345;28;20185;-82
2022/11/16 14:18:47;;;;;;;5.57;2.13;;;;;;;;;;5075564;28;20180;-82
2022/11/16 14:21:20;;;;;;;4.40;2.00;;;;;;;;;;5083625;28;20199;-80
2022/11/16 14:23:46;;;;;;;4.17;2.10;;;;;;;;;;5068866;28;20223;-81
2022/11/16 14:26:12;;;;;;;4.50;1.63;;;;;;;;;;5050953;28;20193;-81
2022/11/16 14:29:08;;;;;;;4.23;1.53;;;;;;;;;;5064428;28;20198;-81
2022/11/16 14:31:49;;;;;;;11.83;8.03;;;;;;;;;;5038822;28;20232;-82
2022/11/16 14:34:16;;;;;;;6.03;2.83;;;;;;;;;;5057667;28;20264;-82
2022/11/16 14:36:43;;;;;;;4.50;1.80;;;;;;;;;;5050466;28;20193;-83
2022/11/16 14:39:28;;;;;;;5.50;1.90;;;;;;;;;;5067567;28;20185;-82
2022/11/16 14:42:18;;;;;;;5.00;1.63;;;;;;;;;;5071150;28;20223;-82
2022/11/16 14:44:44;;;;;;;6.60;1.97;;;;;;;;;;5051310;28;20197;-80
2022/11/16 14:47:24;;;;;;;3.23;1.60;;;;;;;;;;5063737;28;20207;-82
2022/11/16 14:49:51;;;;;;;4.33;1.50;;;;;;;;;;5044662;28;20188;-80
2022/11/16 14:52:20;;;;;;;4.37;1.70;;;;;;;;;;5076096;28;20229;-82
2022/11/16 14:54:50;;;;;;;6.03;1.70;;;;;;;;;;5075117;28;20915;-82
2022/11/16 14:57:21;;;;;;;6.13;1.67;;;;;;;;;;5073636;28;20210;-82
2022/11/16 14:59:47;;;;;;;6.13;1.80;;;;;;;;;;5052545;28;20178;-82
2022/11/16 15:02:21;;;;;;;5.20;1.60;;;;;;;;;;5067862;28;20696;-82
2022/11/16 15:04:49;;;;;;;5.00;1.50;;;;;;;;;;5072646;28;20187;-83
2022/11/16 15:07:15;;;;;;;4.63;1.60;;;;;;;;;;5086388;28;20267;-82
2022/11/16 15:09:44;;;;;;;3.07;1.70;;;;;;;;;;5087017;28;20196;-81
2022/11/16 15:15:01;;;;;;;4.93;1.97;;;;;;;;;;5088227;28;20633;-81
2022/11/16 15:17:27;;;;;;;4.60;2.30;;;;;;;;;;5069903;28;20216;-81
2022/11/16 15:19:58;;;;;;;7.10;2.90;;;;;;;;;;5066985;28;20179;-81
2022/11/16 15:22:26;;;;;;;5.03;2.40;;;;;;;;;;5065419;28;20217;-82
2022/11/16 15:24:56;;;;;;;7.27;2.13;;;;;;;;;;5047290;28;20215;-82
2022/11/16 15:27:36;;;;;;;7.20;2.47;;;;;;;;;;5081667;28;20200;-82
2022/11/16 15:30:24;;;;;;;4.27;2.10;;;;;;;;;;5070595;28;20189;-82
2022/11/16 15:32:51;;;;;;;3.60;2.17;;;;;;;;;;5066398;28;20207;-82
2022/11/16 15:35:19;;;;;;;4.67;1.80;;;;;;;;;;5070470;28;20403;-82
2022/11/16 15:37:46;;;;;;;6.03;2.20;;;;;;;;;;5053340;28;20185;-82
2022/11/16 15:40:12;;;;;;;8.03;2.17;;;;;;;;;;5067390;28;20830;-81
2022/11/16 15:42:40;;;;;;;4.87;1.70;;;;;;;;;;5064832;28;20209;-82
2022/11/16 15:45:16;;;;;;;3.70;1.90;;;;;;;;;;5068431;28;20181;-80
2022/11/16 15:47:45;;;;;;;4.10;1.80;;;;;;;;;;5070289;28;20644;-82
2022/11/16 15:50:15;;;;;;;4.47;2.10;;;;;;;;;;5053445;28;20177;-82